Time;durP1;ratioP1;P1;durP2;ratioP2;P2;SDS_P1;SDS_P2;PMS_P1;PMS_P2;Temp;Humidity;BMP_temperature;BMP_pressure;BME280_temperature;BME280_humidity;BME280_pressure;Samples;Min_cycle;Max_cycle;Signal;HPM_P1;HPM_P2
2022/08/03 00:00:05;;;;;;;6.23;1.40;;;20.20;99.90;;;;;;5042623;28;20036;-75
2022/08/03 00:02:38;;;;;;;8.03;2.00;;;20.20;99.90;;;;;;5044429;28;20044;-76
2022/08/03 00:05:07;;;;;;;8.13;1.50;;;20.20;99.90;;;;;;5042386;28;20037;-76
2022/08/03 00:07:32;;;;;;;7.83;1.93;;;20.20;99.90;;;;;;5033164;28;20073;-76
2022/08/03 00:09:58;;;;;;;5.73;1.50;;;20.20;99.90;;;;;;5022135;28;20179;-76
2022/08/03 00:12:24;;;;;;;8.03;1.83;;;20.20;99.90;;;;;;5029766;28;20554;-76
2022/08/03 00:14:50;;;;;;;5.87;1.60;;;20.20;99.90;;;;;;5017992;28;20033;-77
2022/08/03 00:17:17;;;;;;;7.03;1.80;;;20.20;99.90;;;;;;5042125;28;20045;-76
2022/08/03 00:19:42;;;;;;;9.43;1.87;;;20.20;99.90;;;;;;5043868;28;20067;-77
2022/08/03 00:22:08;;;;;;;9.93;1.77;;;20.30;99.90;;;;;;5028094;28;20045;-76
2022/08/03 00:24:35;;;;;;;6.33;2.07;;;20.20;99.90;;;;;;5026882;28;20056;-76
2022/08/03 00:27:00;;;;;;;7.90;1.80;;;20.20;99.90;;;;;;5027447;28;20128;-76
2022/08/03 00:29:26;;;;;;;5.17;1.80;;;20.20;99.90;;;;;;5029422;28;20133;-75
2022/08/03 00:31:52;;;;;;;6.73;1.90;;;20.20;99.90;;;;;;5031636;28;20048;-76
2022/08/03 00:34:19;;;;;;;9.17;1.87;;;20.20;99.90;;;;;;5015410;28;20040;-77
2022/08/03 00:36:45;;;;;;;8.37;2.07;;;20.20;99.90;;;;;;5049143;28;20055;-76
2022/08/03 00:39:11;;;;;;;7.47;1.70;;;20.20;99.90;;;;;;5032715;28;20048;-76
2022/08/03 00:41:36;;;;;;;8.23;1.80;;;20.20;99.90;;;;;;5047366;28;20076;-77
2022/08/03 00:44:02;;;;;;;4.33;1.70;;;20.20;99.90;;;;;;5049484;28;20094;-76
2022/08/03 00:46:28;;;;;;;7.83;1.90;;;20.20;99.90;;;;;;5031368;28;20056;-76
2022/08/03 00:48:54;;;;;;;9.83;2.10;;;20.10;99.90;;;;;;5047711;28;20033;-76
2022/08/03 00:51:21;;;;;;;6.37;1.70;;;20.00;99.90;;;;;;5056561;28;20091;-76
2022/08/03 00:53:48;;;;;;;6.43;2.10;;;20.00;99.90;;;;;;5046131;28;20072;-77
2022/08/03 00:56:14;;;;;;;4.57;1.80;;;20.00;99.90;;;;;;5049004;28;20047;-76
2022/08/03 00:58:42;;;;;;;8.23;1.87;;;20.00;99.90;;;;;;5028558;28;20071;-76
2022/08/03 01:01:08;;;;;;;6.30;2.10;;;20.00;99.90;;;;;;5031553;28;20067;-76
2022/08/03 01:03:34;;;;;;;9.27;1.80;;;19.90;99.90;;;;;;5046832;28;20503;-76
2022/08/03 01:06:06;;;;;;;6.07;2.20;;;19.80;99.90;;;;;;5032453;28;20040;-76
2022/08/03 01:08:42;;;;;;;7.77;2.23;;;19.70;99.90;;;;;;5035450;28;20055;-77
2022/08/03 01:11:15;;;;;;;7.80;1.60;;;19.70;99.90;;;;;;5022877;28;20378;-76
2022/08/03 01:13:49;;;;;;;5.80;2.23;;;19.50;99.90;;;;;;5047031;28;20048;-76
2022/08/03 01:16:21;;;;;;;8.33;2.27;;;19.50;99.90;;;;;;5030811;28;20511;-76
2022/08/03 01:18:54;;;;;;;6.53;2.40;;;19.50;99.90;;;;;;5015737;28;20396;-76
2022/08/03 01:21:25;;;;;;;8.10;2.70;;;19.40;99.90;;;;;;5059520;28;20135;-76
2022/08/03 01:24:21;;;;;;;10.67;2.67;;;19.30;99.90;;;;;;5045561;28;20041;-76
2022/08/03 01:27:03;;;;;;;6.60;2.33;;;19.30;99.90;;;;;;5033532;28;20488;-76
2022/08/03 01:29:49;;;;;;;9.10;2.93;;;19.30;99.90;;;;;;5030784;28;20119;-76
2022/08/03 01:32:18;;;;;;;9.47;2.73;;;19.20;99.90;;;;;;5047095;28;20056;-76
2022/08/03 01:34:49;;;;;;;12.07;2.60;;;19.20;99.90;;;;;;5044708;28;20127;-76
2022/08/03 01:37:21;;;;;;;6.00;3.00;;;19.10;99.90;;;;;;5047444;28;20045;-76
2022/08/03 01:39:49;;;;;;;15.47;3.57;;;19.10;99.90;;;;;;5042864;28;20412;-76
2022/08/03 01:42:15;;;;;;;9.03;3.27;;;19.10;99.90;;;;;;5046750;28;20075;-75
2022/08/03 01:44:47;;;;;;;10.47;3.60;;;19.00;99.90;;;;;;5012577;28;20125;-75
2022/08/03 01:47:15;;;;;;;8.30;3.00;;;19.00;99.90;;;;;;5028137;28;20416;-76
2022/08/03 01:49:44;;;;;;;10.43;3.23;;;18.90;99.90;;;;;;5030963;28;20043;-76
2022/08/03 01:52:11;;;;;;;10.30;3.43;;;18.90;99.90;;;;;;5030052;28;20052;-76
2022/08/03 01:54:42;;;;;;;9.33;4.00;;;18.80;99.90;;;;;;5031147;28;20090;-76
2022/08/03 01:57:09;;;;;;;10.53;3.40;;;18.80;99.90;;;;;;5029978;28;20048;-76
2022/08/03 01:59:36;;;;;;;12.37;3.53;;;18.70;99.90;;;;;;5045956;28;20420;-76
2022/08/03 02:02:06;;;;;;;13.50;4.47;;;18.70;99.90;;;;;;5046780;28;20045;-76
2022/08/03 02:04:33;;;;;;;6.73;3.40;;;18.70;99.90;;;;;;5028041;28;20045;-76
2022/08/03 02:07:01;;;;;;;10.37;3.53;;;18.70;99.90;;;;;;5029097;28;20045;-76
2022/08/03 02:09:28;;;;;;;11.00;3.73;;;18.70;99.90;;;;;;5044718;28;20052;-76
2022/08/03 02:11:57;;;;;;;8.83;3.47;;;18.70;99.90;;;;;;5009632;28;20392;-76
2022/08/03 02:14:24;;;;;;;8.00;3.60;;;18.70;99.90;;;;;;5045260;28;20067;-76
2022/08/03 02:16:51;;;;;;;11.07;3.83;;;18.70;99.90;;;;;;5029337;28;20045;-75
2022/08/03 02:19:18;;;;;;;8.87;3.40;;;18.60;99.90;;;;;;5046568;28;20090;-76
2022/08/03 02:21:45;;;;;;;9.20;3.70;;;18.60;99.90;;;;;;5026678;28;20045;-76
2022/08/03 02:24:11;;;;;;;9.43;4.23;;;18.60;99.90;;;;;;5046268;28;20069;-76
2022/08/03 02:26:38;;;;;;;6.40;3.27;;;18.60;99.90;;;;;;5029077;28;20226;-76
2022/08/03 02:29:10;;;;;;;7.67;3.20;;;18.60;99.90;;;;;;5046597;28;20055;-75
2022/08/03 02:31:37;;;;;;;8.60;3.83;;;18.50;99.90;;;;;;5045625;28;20453;-75
2022/08/03 02:34:08;;;;;;;12.37;3.87;;;18.50;99.90;;;;;;5043420;28;20127;-76
2022/08/03 02:36:38;;;;;;;9.70;4.00;;;18.50;99.90;;;;;;5030619;28;20043;-76
2022/08/03 02:39:06;;;;;;;13.70;3.67;;;18.50;99.90;;;;;;5028590;28;20063;-75
2022/08/03 02:41:36;;;;;;;14.93;4.27;;;18.50;99.90;;;;;;5046196;28;20561;-76
2022/08/03 02:44:07;;;;;;;9.00;3.87;;;18.50;99.90;;;;;;5028779;28;20041;-75
2022/08/03 02:46:37;;;;;;;12.27;3.87;;;18.50;99.90;;;;;;5027886;28;20053;-76
2022/08/03 02:49:04;;;;;;;8.97;4.13;;;18.50;99.90;;;;;;5028096;28;20124;-76
2022/08/03 02:51:32;;;;;;;11.33;3.73;;;18.50;99.90;;;;;;5044430;28;20037;-76
2022/08/03 02:54:01;;;;;;;12.43;3.97;;;18.40;99.90;;;;;;5011834;28;20411;-76
2022/08/03 02:56:28;;;;;;;13.10;4.00;;;18.40;99.90;;;;;;5044980;28;20416;-76
2022/08/03 02:58:56;;;;;;;12.27;4.00;;;18.40;99.90;;;;;;5045049;28;20048;-76
2022/08/03 03:01:23;;;;;;;10.83;3.80;;;18.40;99.90;;;;;;5062137;28;20053;-76
2022/08/03 03:03:49;;;;;;;11.57;4.40;;;18.40;99.90;;;;;;5025305;28;20056;-76
2022/08/03 03:06:16;;;;;;;12.33;4.00;;;18.40;99.90;;;;;;5030208;28;20132;-77
2022/08/03 03:08:42;;;;;;;8.17;3.97;;;18.30;99.90;;;;;;5026935;28;20077;-76
2022/08/03 03:11:12;;;;;;;8.00;3.83;;;18.40;99.90;;;;;;5033347;28;20041;-76
2022/08/03 03:13:40;;;;;;;9.77;4.30;;;18.30;99.90;;;;;;5011237;28;20049;-76
2022/08/03 03:16:08;;;;;;;11.37;4.03;;;18.30;99.90;;;;;;5044022;28;22192;-76
2022/08/03 03:18:35;;;;;;;10.53;4.40;;;18.30;99.90;;;;;;5043350;28;20127;-76
2022/08/03 03:21:03;;;;;;;10.97;3.90;;;18.30;99.90;;;;;;5027125;28;20036;-75
2022/08/03 03:23:30;;;;;;;7.30;4.33;;;18.30;99.90;;;;;;5027971;28;20483;-75
2022/08/03 03:25:57;;;;;;;10.80;3.90;;;18.30;99.90;;;;;;5025873;28;20043;-75
2022/08/03 03:28:25;;;;;;;12.13;4.10;;;18.20;99.90;;;;;;5044822;28;20072;-76
2022/08/03 03:30:51;;;;;;;10.40;4.20;;;18.20;99.90;;;;;;5028861;28;20044;-76
2022/08/03 03:33:17;;;;;;;13.13;4.40;;;18.20;99.90;;;;;;5044189;28;20080;-76
2022/08/03 03:35:45;;;;;;;9.03;4.07;;;18.20;99.90;;;;;;5045479;28;20561;-76
2022/08/03 03:38:11;;;;;;;7.90;4.47;;;18.10;99.90;;;;;;5026388;28;20516;-76
2022/08/03 03:40:38;;;;;;;9.27;4.50;;;18.10;99.90;;;;;;5044597;28;20179;-76
2022/08/03 03:43:07;;;;;;;12.07;4.30;;;18.10;99.90;;;;;;5042544;28;20045;-76
2022/08/03 03:45:34;;;;;;;9.67;4.40;;;18.10;99.90;;;;;;5041709;28;20123;-76
2022/08/03 03:48:00;;;;;;;10.87;4.10;;;18.10;99.90;;;;;;5045454;28;20154;-76
2022/08/03 03:50:26;;;;;;;11.73;4.07;;;18.10;99.90;;;;;;5041751;28;20064;-75
2022/08/03 03:52:52;;;;;;;9.07;4.27;;;18.10;99.90;;;;;;5027446;28;20053;-75
2022/08/03 03:55:18;;;;;;;12.67;4.50;;;18.10;99.90;;;;;;5043539;28;20427;-76
2022/08/03 03:57:44;;;;;;;10.40;3.60;;;18.10;99.90;;;;;;5028477;28;20048;-76
2022/08/03 04:00:11;;;;;;;11.40;4.33;;;18.10;99.90;;;;;;5026316;28;20506;-76
2022/08/03 04:02:39;;;;;;;8.63;3.93;;;18.10;99.90;;;;;;5024058;28;20542;-76
2022/08/03 04:10:57;;;;;;;11.17;4.00;;;18.00;99.90;;;;;;5045012;28;20045;-76
2022/08/03 04:13:26;;;;;;;12.40;4.17;;;18.00;99.90;;;;;;5021379;28;20488;-76
2022/08/03 04:15:54;;;;;;;10.60;3.90;;;18.00;99.90;;;;;;5044070;28;20057;-76
2022/08/03 04:18:22;;;;;;;11.23;3.97;;;18.00;99.90;;;;;;5024790;28;20037;-76
2022/08/03 04:20:50;;;;;;;9.77;4.17;;;17.90;99.90;;;;;;5043677;28;20049;-76
2022/08/03 04:23:19;;;;;;;10.87;3.87;;;17.90;99.90;;;;;;5028071;28;20052;-76
2022/08/03 04:25:47;;;;;;;9.80;4.47;;;17.90;99.90;;;;;;5022577;28;20437;-76
2022/08/03 04:28:15;;;;;;;8.73;3.80;;;17.90;99.90;;;;;;5012850;28;20719;-75
2022/08/03 04:30:47;;;;;;;13.30;4.53;;;17.90;99.90;;;;;;5026255;28;20057;-76
2022/08/03 04:33:14;;;;;;;10.90;3.97;;;18.00;99.90;;;;;;5043091;28;20037;-76
2022/08/03 04:35:44;;;;;;;10.27;4.73;;;18.00;99.90;;;;;;5040505;28;20048;-76
2022/08/03 04:38:14;;;;;;;10.90;4.33;;;18.00;99.90;;;;;;5042886;28;20045;-76
2022/08/03 04:40:42;;;;;;;12.43;4.10;;;18.00;99.90;;;;;;5045283;28;20045;-76
2022/08/03 04:43:10;;;;;;;12.90;4.33;;;18.00;99.90;;;;;;5060127;28;20446;-76
2022/08/03 04:45:36;;;;;;;9.53;3.73;;;18.00;99.90;;;;;;5043712;28;20041;-76
2022/08/03 04:48:03;;;;;;;12.67;4.27;;;18.10;99.90;;;;;;5033063;28;20104;-75
2022/08/03 04:50:29;;;;;;;11.90;4.00;;;18.10;99.90;;;;;;5038842;28;20972;-76
2022/08/03 04:53:06;;;;;;;10.43;4.10;;;18.10;99.90;;;;;;5042592;28;20072;-76
2022/08/03 04:55:33;;;;;;;10.03;4.53;;;18.10;99.90;;;;;;5040357;28;20040;-76
2022/08/03 04:58:01;;;;;;;8.87;3.87;;;18.10;99.90;;;;;;5029097;28;20045;-76
2022/08/03 05:00:28;;;;;;;8.73;4.37;;;18.20;99.90;;;;;;5042000;28;20044;-76
2022/08/03 05:02:54;;;;;;;13.03;3.87;;;18.20;99.90;;;;;;5043353;28;20044;-76
2022/08/03 05:05:20;;;;;;;9.70;4.10;;;18.20;99.90;;;;;;5027132;28;20135;-76
2022/08/03 05:07:45;;;;;;;13.33;4.07;;;18.20;99.90;;;;;;5042601;28;20128;-76
2022/08/03 05:10:13;;;;;;;10.37;4.50;;;18.30;99.90;;;;;;5028650;28;20571;-76
2022/08/03 05:12:39;;;;;;;9.50;3.97;;;18.40;99.90;;;;;;5042660;28;20049;-75
2022/08/03 05:15:07;;;;;;;13.83;5.00;;;18.40;99.90;;;;;;5039947;28;20520;-76
2022/08/03 05:17:33;;;;;;;13.43;4.80;;;18.50;99.90;;;;;;5031158;28;20405;-76
2022/08/03 05:19:59;;;;;;;11.50;4.67;;;18.40;99.90;;;;;;5032306;28;20055;-76
2022/08/03 05:22:25;;;;;;;10.50;4.10;;;18.50;99.90;;;;;;5030572;28;20076;-76
2022/08/03 05:24:51;;;;;;;8.60;4.20;;;18.50;99.90;;;;;;5047430;28;20073;-75
2022/08/03 05:27:18;;;;;;;13.07;4.53;;;18.60;99.90;;;;;;5030603;28;20502;-76
2022/08/03 05:29:44;;;;;;;11.43;4.23;;;18.60;99.90;;;;;;5046561;28;20040;-76
2022/08/03 05:32:10;;;;;;;13.03;4.30;;;18.70;99.90;;;;;;5047190;28;20530;-76
2022/08/03 05:34:36;;;;;;;10.20;3.97;;;18.70;99.90;;;;;;5030618;28;20045;-76
2022/08/03 05:37:02;;;;;;;14.23;4.50;;;18.80;99.90;;;;;;5016132;28;20579;-76
2022/08/03 05:39:28;;;;;;;9.10;4.60;;;18.80;99.90;;;;;;5031735;28;20036;-77
2022/08/03 05:41:53;;;;;;;11.37;4.70;;;18.90;99.90;;;;;;5047468;28;20099;-76
2022/08/03 05:44:20;;;;;;;12.40;4.50;;;18.90;99.90;;;;;;5031462;28;20527;-76
2022/08/03 05:46:46;;;;;;;8.83;4.07;;;19.00;99.90;;;;;;5031397;28;20053;-76
2022/08/03 05:49:12;;;;;;;13.77;5.17;;;19.10;99.90;;;;;;5046671;28;20043;-76
2022/08/03 05:51:38;;;;;;;11.17;4.77;;;19.30;99.90;;;;;;5048859;28;20045;-76
2022/08/03 05:54:04;;;;;;;11.90;4.97;;;19.40;99.90;;;;;;5044398;28;20504;-77
2022/08/03 05:56:29;;;;;;;8.90;4.33;;;19.40;99.90;;;;;;5048350;28;20701;-77
2022/08/03 05:58:55;;;;;;;14.90;5.07;;;19.40;99.90;;;;;;5043562;28;20045;-75
2022/08/03 06:01:22;;;;;;;15.83;5.23;;;19.50;99.90;;;;;;5030036;28;20064;-76
2022/08/03 06:03:49;;;;;;;11.93;4.33;;;19.50;99.90;;;;;;5029581;28;20045;-77
2022/08/03 06:06:15;;;;;;;15.17;4.50;;;19.60;99.90;;;;;;5047678;28;20083;-76
2022/08/03 06:08:42;;;;;;;10.67;4.60;;;19.70;99.90;;;;;;5044962;28;20122;-76
2022/08/03 06:11:08;;;;;;;15.40;5.70;;;19.80;99.90;;;;;;5062528;28;20037;-76
2022/08/03 06:13:34;;;;;;;13.07;4.90;;;19.80;99.90;;;;;;5019195;28;20418;-76
2022/08/03 06:16:00;;;;;;;14.80;4.33;;;19.90;99.90;;;;;;5040505;28;20800;-79
2022/08/03 06:18:27;;;;;;;14.23;4.10;;;20.00;99.90;;;;;;5047421;28;20037;-76
2022/08/03 06:20:53;;;;;;;10.90;4.30;;;20.10;99.90;;;;;;5028386;28;20047;-79
2022/08/03 06:23:19;;;;;;;16.27;4.53;;;20.10;99.90;;;;;;5030461;28;20072;-80
2022/08/03 06:25:45;;;;;;;15.17;4.43;;;20.20;99.90;;;;;;5013374;28;20079;-76
2022/08/03 06:28:12;;;;;;;13.10;3.87;;;20.30;99.90;;;;;;5034277;28;20037;-76
2022/08/03 06:30:39;;;;;;;15.30;4.20;;;20.30;99.90;;;;;;5014851;28;20451;-77
2022/08/03 06:33:04;;;;;;;13.17;4.20;;;20.40;99.90;;;;;;5046566;28;20062;-79
2022/08/03 06:35:32;;;;;;;14.73;4.53;;;20.40;99.90;;;;;;5013042;28;20048;-76
2022/08/03 06:37:58;;;;;;;15.03;4.80;;;20.50;99.90;;;;;;5031170;28;20065;-76
2022/08/03 06:40:31;;;;;;;13.02;4.50;;;20.50;99.90;;;;;;5046530;28;20125;-76
2022/08/03 06:42:57;;;;;;;16.15;4.28;;;20.60;99.90;;;;;;5047036;28;20508;-78
2022/08/03 06:45:23;;;;;;;12.65;4.13;;;20.60;99.90;;;;;;5046516;28;20041;-76
2022/08/03 06:47:59;;;;;;;14.97;4.57;;;20.60;99.90;;;;;;5046757;28;20043;-76
2022/08/03 06:50:25;;;;;;;17.13;4.35;;;20.70;99.90;;;;;;5046755;28;20118;-77
2022/08/03 06:52:52;;;;;;;19.95;4.25;;;20.70;99.90;;;;;;5047218;28;20511;-76
2022/08/03 06:55:18;;;;;;;14.80;4.40;;;20.70;99.90;;;;;;5043566;28;20143;-77
2022/08/03 06:57:43;;;;;;;16.07;4.50;;;20.70;99.90;;;;;;5013353;28;20131;-76
2022/08/03 07:00:10;;;;;;;10.55;3.83;;;20.80;99.90;;;;;;5030372;28;20032;-78
2022/08/03 07:02:36;;;;;;;15.32;4.30;;;20.90;99.90;;;;;;5030648;28;20136;-76
2022/08/03 07:05:03;;;;;;;16.77;4.10;;;20.90;99.90;;;;;;5028406;28;20041;-77
2022/08/03 07:07:28;;;;;;;18.27;4.55;;;21.00;99.90;;;;;;5027806;28;20527;-76
2022/08/03 07:09:56;;;;;;;17.88;4.70;;;21.00;99.90;;;;;;5026928;28;20045;-78
2022/08/03 07:12:21;;;;;;;14.32;4.15;;;21.10;99.90;;;;;;5028107;28;20131;-77
2022/08/03 07:14:48;;;;;;;18.00;4.28;;;21.00;99.90;;;;;;5012355;28;20124;-78
2022/08/03 07:17:14;;;;;;;13.23;3.55;;;21.10;99.90;;;;;;4999065;28;20139;-77
2022/08/03 07:19:39;;;;;;;13.40;3.47;;;21.10;99.90;;;;;;5044432;28;20029;-77
2022/08/03 07:22:05;;;;;;;18.40;4.30;;;21.00;99.90;;;;;;5028029;28;20071;-77
2022/08/03 07:24:31;;;;;;;18.67;3.90;;;21.00;99.90;;;;;;5028606;28;20043;-78
2022/08/03 07:26:58;;;;;;;16.17;4.28;;;21.10;99.90;;;;;;5038182;28;20049;-79
2022/08/03 07:29:24;;;;;;;13.20;3.90;;;21.10;99.90;;;;;;5041717;28;20048;-75
2022/08/03 07:31:49;;;;;;;14.23;4.20;;;21.20;99.90;;;;;;5045769;28;20045;-80
2022/08/03 07:34:16;;;;;;;15.05;4.20;;;21.20;99.90;;;;;;5045355;28;20041;-78
2022/08/03 07:36:42;;;;;;;11.18;3.83;;;21.20;99.90;;;;;;5046645;28;20056;-76
2022/08/03 07:39:08;;;;;;;12.70;3.92;;;21.30;99.90;;;;;;5019626;28;20041;-77
2022/08/03 07:41:33;;;;;;;15.45;3.65;;;21.30;99.90;;;;;;5029297;28;20484;-77
2022/08/03 07:44:00;;;;;;;12.95;3.42;;;21.30;99.90;;;;;;5043967;28;20036;-76
2022/08/03 07:46:26;;;;;;;18.95;4.43;;;21.40;99.90;;;;;;5011769;28;20076;-76
2022/08/03 07:48:52;;;;;;;11.75;4.15;;;21.40;99.90;;;;;;5041112;28;20064;-76
2022/08/03 07:51:18;;;;;;;14.32;4.18;;;21.40;99.90;;;;;;5026595;28;20091;-76
2022/08/03 07:53:43;;;;;;;20.05;4.97;;;21.50;99.90;;;;;;5043526;28;20044;-77
2022/08/03 07:56:09;;;;;;;15.25;4.05;;;21.60;99.90;;;;;;5041615;28;20041;-77
2022/08/03 07:58:35;;;;;;;13.13;4.50;;;21.60;99.90;;;;;;5007741;28;20080;-76
2022/08/03 08:01:03;;;;;;;20.90;4.85;;;21.70;99.90;;;;;;5020647;28;20045;-76
2022/08/03 08:03:28;;;;;;;23.35;5.05;;;21.80;99.90;;;;;;5042631;28;20051;-75
2022/08/03 08:05:54;;;;;;;16.25;4.30;;;21.90;99.90;;;;;;5027872;28;20059;-77
2022/08/03 08:08:20;;;;;;;13.60;4.45;;;21.90;99.90;;;;;;5024349;28;20041;-76
2022/08/03 08:10:46;;;;;;;18.63;3.88;;;22.00;99.90;;;;;;5027195;28;20102;-76
2022/08/03 08:13:11;;;;;;;14.02;4.90;;;22.10;99.90;;;;;;5042583;28;20450;-77
2022/08/03 08:15:37;;;;;;;14.98;4.00;;;22.20;99.90;;;;;;5041862;28;20049;-79
2022/08/03 08:18:04;;;;;;;15.90;3.95;;;22.30;99.90;;;;;;5038468;28;20735;-76
2022/08/03 08:20:32;;;;;;;16.45;4.50;;;22.30;99.90;;;;;;5041010;28;20428;-76
2022/08/03 08:23:00;;;;;;;15.55;4.05;;;22.40;99.90;;;;;;5027427;28;20033;-77
2022/08/03 08:25:25;;;;;;;15.27;4.50;;;22.40;99.90;;;;;;5044048;28;20057;-75
2022/08/03 08:27:52;;;;;;;14.35;4.18;;;22.50;99.90;;;;;;5037660;28;20424;-77
2022/08/03 08:30:20;;;;;;;15.63;4.43;;;22.50;99.90;;;;;;5043266;28;20126;-79
2022/08/03 08:32:46;;;;;;;14.25;3.83;;;22.60;99.90;;;;;;5026245;28;20049;-76
2022/08/03 08:35:15;;;;;;;17.98;4.40;;;22.60;99.90;;;;;;5009250;28;20415;-77
2022/08/03 08:37:42;;;;;;;17.38;4.18;;;22.70;99.90;;;;;;5023393;28;20454;-77
2022/08/03 08:40:09;;;;;;;13.80;4.55;;;22.80;99.90;;;;;;5005027;28;20033;-76
2022/08/03 08:42:37;;;;;;;14.88;3.97;;;22.90;99.90;;;;;;5026158;28;20056;-78
2022/08/03 08:45:05;;;;;;;13.35;4.25;;;23.00;99.90;;;;;;5050770;28;20045;-76
2022/08/03 08:47:32;;;;;;;17.65;4.70;;;23.00;99.90;;;;;;5038203;28;20067;-75
2022/08/03 08:50:00;;;;;;;15.45;4.30;;;23.10;99.90;;;;;;5029340;28;20047;-77
2022/08/03 08:52:28;;;;;;;16.52;3.92;;;23.20;99.90;;;;;;5047969;28;20352;-79
2022/08/03 08:54:56;;;;;;;17.13;4.18;;;23.40;99.90;;;;;;5048605;28;20492;-75
2022/08/03 08:57:24;;;;;;;14.77;3.92;;;23.50;99.90;;;;;;5046707;28;20052;-76
2022/08/03 08:59:52;;;;;;;12.45;3.42;;;23.70;99.90;;;;;;5046061;28;20182;-76
2022/08/03 09:02:18;;;;;;;14.60;3.80;;;23.70;99.90;;;;;;5045351;28;20048;-76
2022/08/03 09:04:44;;;;;;;17.27;4.18;;;23.80;99.90;;;;;;5045179;28;20044;-75
2022/08/03 09:07:10;;;;;;;16.63;3.83;;;23.90;99.90;;;;;;5031845;28;20131;-75
2022/08/03 09:09:37;;;;;;;15.60;4.43;;;24.10;99.90;;;;;;5031634;28;20124;-77
2022/08/03 09:12:03;;;;;;;13.77;4.07;;;24.20;99.90;;;;;;5032918;28;20483;-78
2022/08/03 09:14:29;;;;;;;12.90;3.50;;;24.40;99.90;;;;;;5049415;28;20123;-77
2022/08/03 09:16:59;;;;;;;16.17;4.05;;;24.50;99.90;;;;;;5013114;28;22278;-77
2022/08/03 09:19:25;;;;;;;15.93;3.38;;;24.60;99.90;;;;;;5043135;28;20128;-74
2022/08/03 09:22:08;;;;;;;13.35;4.05;;;24.80;99.90;;;;;;5046015;28;20160;-75
2022/08/03 09:24:34;;;;;;;16.35;3.65;;;24.90;99.90;;;;;;5047797;28;20052;-76
2022/08/03 09:27:03;;;;;;;12.90;4.07;;;25.00;99.90;;;;;;5031531;28;20041;-75
2022/08/03 09:29:31;;;;;;;13.07;3.15;;;25.20;99.90;;;;;;5045718;28;20045;-78
2022/08/03 09:32:00;;;;;;;15.48;4.07;;;25.30;99.90;;;;;;5030723;28;20411;-76
2022/08/03 09:34:29;;;;;;;9.77;3.25;;;25.50;99.90;;;;;;5028236;28;20048;-76
2022/08/03 09:36:58;;;;;;;13.50;3.85;;;25.60;99.90;;;;;;5034401;28;20044;-76
2022/08/03 09:39:26;;;;;;;12.20;3.65;;;25.80;99.90;;;;;;5013968;28;20041;-76
2022/08/03 09:42:06;;;;;;;13.30;3.65;;;26.00;99.90;;;;;;5045494;28;20061;-76
2022/08/03 09:44:36;;;;;;;13.80;3.05;;;26.20;99.90;;;;;;5031358;28;20068;-79
2022/08/03 09:47:03;;;;;;;14.43;3.75;;;26.50;99.90;;;;;;5025452;28;20033;-77
2022/08/03 09:49:29;;;;;;;12.70;3.05;;;26.70;99.90;;;;;;5016525;28;20526;-78
2022/08/03 09:51:55;;;;;;;13.13;3.55;;;27.10;99.90;;;;;;5045942;28;20073;-76
2022/08/03 09:54:29;;;;;;;9.95;3.15;;;27.50;99.90;;;;;;5028092;28;20052;-78
2022/08/03 09:56:56;;;;;;;18.65;3.90;;;28.20;99.90;;;;;;5041644;28;20109;-76
2022/08/03 09:59:28;;;;;;;13.35;3.10;;;29.10;99.90;;;;;;5022511;28;20054;-76
2022/08/03 10:01:54;;;;;;;13.32;3.65;;;29.70;99.90;;;;;;5022132;28;20044;-76
2022/08/03 10:04:22;;;;;;;16.35;3.80;;;30.40;99.90;;;;;;5030042;28;20049;-78
2022/08/03 10:07:03;;;;;;;14.82;3.67;;;30.70;99.90;;;;;;5028632;28;20102;-77
2022/08/03 10:09:29;;;;;;;11.00;2.85;;;30.80;97.60;;;;;;5031035;28;20053;-77
2022/08/03 10:11:55;;;;;;;14.70;4.20;;;30.90;98.40;;;;;;5027404;28;20095;-79
2022/08/03 10:14:22;;;;;;;11.05;2.85;;;31.30;98.00;;;;;;5031376;28;20083;-76
2022/08/03 10:16:49;;;;;;;14.35;3.72;;;31.70;97.70;;;;;;5028400;28;20073;-81
2022/08/03 10:19:15;;;;;;;13.00;2.95;;;32.10;96.40;;;;;;5060076;28;20124;-78
2022/08/03 10:21:48;;;;;;;12.63;3.47;;;32.10;95.20;;;;;;5022032;28;20088;-78
2022/08/03 10:24:15;;;;;;;;;;;32.20;94.40;;;;;;5043377;28;20040;-77
2022/08/03 10:26:43;;;;;;;12.45;2.83;;;32.20;94.10;;;;;;5045922;28;19920;-77
2022/08/03 10:29:11;;;;;;;11.75;3.38;;;32.10;93.80;;;;;;5044760;28;20037;-77
2022/08/03 10:31:39;;;;;;;13.43;3.75;;;32.10;93.40;;;;;;5020985;28;20170;-75
2022/08/03 10:34:13;;;;;;;15.05;3.35;;;31.90;93.90;;;;;;5022294;28;20045;-76
2022/08/03 10:36:41;;;;;;;17.23;3.20;;;31.70;93.90;;;;;;5024247;28;20053;-75
2022/08/03 10:39:09;;;;;;;16.08;3.17;;;31.70;94.40;;;;;;5047166;28;20048;-77
2022/08/03 10:41:41;;;;;;;16.48;3.65;;;31.60;93.80;;;;;;5028523;28;20041;-77
2022/08/03 10:44:09;;;;;;;13.93;3.40;;;31.50;93.50;;;;;;5019189;28;20049;-77
2022/08/03 10:46:38;;;;;;;12.93;3.00;;;31.50;94.60;;;;;;5040139;28;20041;-78
2022/08/03 10:49:05;;;;;;;19.58;3.28;;;31.30;94.60;;;;;;5038276;28;20142;-79
2022/08/03 10:51:33;;;;;;;22.27;3.78;;;31.20;94.60;;;;;;5025243;28;20099;-77
2022/08/03 10:53:59;;;;;;;20.05;3.05;;;31.00;94.20;;;;;;5043746;28;20415;-76
2022/08/03 10:59:57;;;;;;;15.77;3.05;;;31.00;94.40;;;;;;5017515;28;20037;-78
2022/08/03 11:03:01;;;;;;;14.52;3.53;;;31.40;95.70;;;;;;5043620;28;20555;-77
2022/08/03 11:05:30;;;;;;;13.80;3.33;;;31.30;93.70;;;;;;5046269;28;20098;-77
2022/08/03 11:08:26;;;;;;;13.55;3.65;;;31.20;94.50;;;;;;5042578;28;20056;-78
2022/08/03 11:10:54;;;;;;;16.05;3.22;;;30.80;94.30;;;;;;5045557;28;20037;-77
2022/08/03 11:13:21;;;;;;;13.68;3.33;;;30.60;94.10;;;;;;5028029;28;20037;-78
2022/08/03 11:15:49;;;;;;;16.33;3.83;;;30.50;93.90;;;;;;5043716;28;20613;-77
2022/08/03 11:18:15;;;;;;;16.80;3.33;;;30.40;94.00;;;;;;5043849;28;20051;-77
2022/08/03 11:20:47;;;;;;;16.92;3.67;;;30.50;95.00;;;;;;5041418;28;20587;-77
2022/08/03 11:23:14;;;;;;;15.18;3.75;;;30.50;95.40;;;;;;5026010;28;20049;-77
2022/08/03 11:26:12;;;;;;;17.55;3.45;;;30.50;95.30;;;;;;5045635;28;20036;-78
2022/08/03 11:28:39;;;;;;;13.50;3.55;;;30.40;94.10;;;;;;5041962;28;20559;-77
2022/08/03 11:31:45;;;;;;;19.50;3.45;;;30.30;94.70;;;;;;5009538;28;20060;-77
2022/08/03 11:34:13;;;;;;;14.60;3.42;;;30.40;94.50;;;;;;5056407;28;20041;-80
2022/08/03 11:37:17;;;;;;;14.60;3.67;;;30.70;95.10;;;;;;5036689;28;20060;-78
2022/08/03 11:39:45;;;;;;;13.85;3.50;;;30.80;93.80;;;;;;5040784;28;20045;-78
2022/08/03 11:42:40;;;;;;;13.52;3.42;;;31.20;94.20;;;;;;5028681;28;20581;-77
2022/08/03 11:45:07;;;;;;;18.45;3.72;;;31.40;93.20;;;;;;5043550;28;20041;-77
2022/08/03 11:47:37;;;;;;;20.00;4.28;;;31.30;92.50;;;;;;5027556;28;20175;-77
2022/08/03 11:50:03;;;;;;;15.52;3.28;;;31.30;93.20;;;;;;5028689;28;20033;-77
2022/08/03 11:52:34;;;;;;;17.73;3.88;;;31.40;93.30;;;;;;5042872;28;20056;-80
2022/08/03 11:55:07;;;;;;;14.77;3.20;;;31.30;93.00;;;;;;5026891;28;20400;-76
2022/08/03 11:57:34;;;;;;;14.38;3.33;;;31.40;92.80;;;;;;5043838;28;20056;-77
2022/08/03 12:00:00;;;;;;;14.45;2.80;;;31.80;93.20;;;;;;5012045;28;20056;-77
2022/08/03 12:02:26;;;;;;;14.38;3.38;;;31.70;91.20;;;;;;5028185;28;20045;-76
2022/08/03 12:04:52;;;;;;;17.48;3.42;;;31.60;91.40;;;;;;5012868;28;20087;-76
2022/08/03 12:07:19;;;;;;;16.27;3.60;;;31.70;91.30;;;;;;5025327;28;20080;-76
2022/08/03 12:10:08;;;;;;;14.88;3.40;;;31.80;91.70;;;;;;5028543;28;20116;-79
2022/08/03 12:12:34;;;;;;;13.75;3.20;;;31.90;91.50;;;;;;5012697;28;20068;-78
2022/08/03 12:15:00;;;;;;;15.55;3.50;;;32.10;91.90;;;;;;5046415;28;20048;-78
2022/08/03 12:17:32;;;;;;;18.55;3.90;;;32.20;91.10;;;;;;5042746;28;20518;-79
2022/08/03 12:19:58;;;;;;;15.32;3.47;;;32.10;90.20;;;;;;5042496;28;20463;-77
2022/08/03 12:22:30;;;;;;;13.07;3.30;;;32.10;88.50;;;;;;5040681;28;20049;-77
2022/08/03 12:24:56;;;;;;;12.95;3.10;;;31.90;90.30;;;;;;5050861;28;20041;-77
2022/08/03 12:27:26;;;;;;;14.25;3.53;;;32.10;91.40;;;;;;5052159;28;20040;-76
2022/08/03 12:29:53;;;;;;;15.23;3.33;;;32.40;90.50;;;;;;5018379;28;20442;-79
2022/08/03 12:32:19;;;;;;;11.65;3.00;;;32.60;90.10;;;;;;5050276;28;20063;-76
2022/08/03 12:34:45;;;;;;;17.33;3.78;;;32.60;86.90;;;;;;5033492;28;20489;-77
2022/08/03 12:37:11;;;;;;;15.80;3.50;;;32.50;84.70;;;;;;5034256;28;20474;-77
2022/08/03 12:39:37;;;;;;;12.88;3.08;;;32.50;84.90;;;;;;5052598;28;20037;-75
2022/08/03 12:42:03;;;;;;;12.30;3.05;;;32.50;86.30;;;;;;5034015;28;20511;-75
2022/08/03 12:44:32;;;;;;;14.23;3.67;;;32.70;85.60;;;;;;5035542;28;20044;-75
2022/08/03 12:46:58;;;;;;;14.68;3.17;;;32.80;85.20;;;;;;5034813;28;20050;-79
2022/08/03 12:49:24;;;;;;;16.08;3.70;;;32.90;83.20;;;;;;5048240;28;20478;-76
2022/08/03 12:51:58;;;;;;;20.33;3.70;;;32.80;83.50;;;;;;5050625;28;20120;-77
2022/08/03 12:54:26;;;;;;;13.80;3.10;;;32.90;83.50;;;;;;5017289;28;20060;-78